Terminal Aerodrome Forecast
Issued by NWS

Home | Current Version | Previous Version | Text Only | Print | Product List | Glossary On
Versions: 1 2 3 4 5 6 7 8 9 10 11 12 13 14 15 16 17 18
026
FTUS44 KJAN 222112 AAA
TAFGTR
TAF AMD
KGTR 222112Z 2221/2318 16011KT P6SM -SHRA SCT015 BKN025
     FM230300 24007KT P6SM VCSH BKN015
     FM230700 31006KT P6SM BKN008
     FM231300 31009KT P6SM BKN015
     FM231500 31010G23KT P6SM BKN025=

USA.gov is the U.S. government's official web portal to all federal, state and local government web resources and services.